Thunder radar more information blitzortung!


Radar de pluja more information rain snow radar


Visita la nostra xarxa de llocs de meteo:

Template documentation
and downloads

And another site



Extreme low temperature From: 23-02-2018 09:00 Until: 09:59 warning for: Extreme low temperature Level: Yellow info button

Pagina Historial Weather Underground text

Diari Resum January 20, 2018 Unitats:  Tant    Imperial   Mètric
« Previous Dia
SegĂźent Dia »
Diari Setmana Mensual Anual Personalitzada
  Maxima: Minima: Media:
Temperatura: TemperatureC °F /  -17.8 °C 4.1 °F /  -15.5 °C 12 °F /  -11.1 °C
Punt de rosada: DewpointC °F /  -17.8 °C -0.6 °F /  -18.1 °C 3 °F /  -16.1 °C
Humitat: Humidity % 45 % 55 %
Wind Speed: WindSpeedKMH mph /  0 km/h - 6.3 mph /  10.1 km/h
RĂ fegues de vent: WindSpeedGustKMH mph /  0 km/h - -
Vent:- - SW
Pression baro: PressurehPa in /  0 hPa 1015.8 in /  34395 hPa -
Precipitacions: 0.0 in /  0 mm    
Historical Graphs
 
 
Dades de taula per January 20, 2018
Temps Temperatura Punt de rosada Pression baro Vent Wind Speed RĂ fegues de vent Humitat Rainfall Rate (Hourly)
TemperatureC °F /  -17.8 °C DewpointC °F /  -17.8 °C PressurehPa in /  0 hPa Calm     Humidity % HourlyPrecipMM in /  0 mm
00:00 4.5 °F /  -15.3 °C -0.3 °F /  -17.9 °C 1020.9 in /  34567.7 hPa Calm   4.8 mph /  7.7 km/h 71 % 0.0 in /  0 mm
00:04 6.7 °F /  -14.1 °C 1.8 °F /  -16.8 °C 1019.9 in /  34533.8 hPa WSW 3.7 mph /  6 km/h 3.7 mph /  6 km/h 71 % 0.0 in /  0 mm
00:09 6.8 °F /  -14 °C 1.9 °F /  -16.7 °C 1019.9 in /  34533.8 hPa WSW 1.9 mph /  3.1 km/h   71 % 0.0 in /  0 mm
00:14 6.9 °F /  -13.9 °C 2.0 °F /  -16.7 °C 1019.9 in /  34533.8 hPa Calm     71 % 0.0 in /  0 mm
00:20 4.2 °F /  -15.4 °C -0.6 °F /  -18.1 °C 1021.9 in /  34601.5 hPa WNW 1.6 mph /  2.6 km/h 1.6 mph /  2.6 km/h 71 % 0.0 in /  0 mm
00:30 4.2 °F /  -15.4 °C -0.6 °F /  -18.1 °C 1021.9 in /  34601.5 hPa WNW 3.2 mph /  5.1 km/h 3.2 mph /  5.1 km/h 71 % 0.0 in /  0 mm
00:40 4.4 °F /  -15.3 °C -0.2 °F /  -17.9 °C 1021.9 in /  34601.5 hPa NNE 4.8 mph /  7.7 km/h 6.4 mph /  10.3 km/h 72 % 0.0 in /  0 mm
00:50 4.3 °F /  -15.4 °C -0.3 °F /  -17.9 °C 1020.9 in /  34567.7 hPa NE 4.8 mph /  7.7 km/h 8.0 mph /  12.9 km/h 72 % 0.0 in /  0 mm
01:00 4.2 °F /  -15.4 °C -0.4 °F /  -18 °C 1020.9 in /  34567.7 hPa NNE 3.2 mph /  5.1 km/h 6.4 mph /  10.3 km/h 72 % 0.0 in /  0 mm
01:10 4.1 °F /  -15.5 °C -0.5 °F /  -18.1 °C 1020.9 in /  34567.7 hPa North 1.6 mph /  2.6 km/h 3.2 mph /  5.1 km/h 72 % 0.0 in /  0 mm
01:20 4.1 °F /  -15.5 °C -0.5 °F /  -18.1 °C 1020.9 in /  34567.7 hPa NNW 1.6 mph /  2.6 km/h 3.2 mph /  5.1 km/h 72 % 0.0 in /  0 mm
01:30 4.1 °F /  -15.5 °C -0.3 °F /  -17.9 °C 1020.9 in /  34567.7 hPa North 1.6 mph /  2.6 km/h 4.8 mph /  7.7 km/h 73 % 0.0 in /  0 mm
01:40 4.2 °F /  -15.4 °C -0.2 °F /  -17.9 °C 1021.9 in /  34601.5 hPa NNW 1.6 mph /  2.6 km/h 3.2 mph /  5.1 km/h 73 % 0.0 in /  0 mm
01:50 4.3 °F /  -15.4 °C -0.1 °F /  -17.8 °C 1020.9 in /  34567.7 hPa NNE 1.6 mph /  2.6 km/h 4.8 mph /  7.7 km/h 73 % 0.0 in /  0 mm
02:00 4.2 °F /  -15.4 °C -0.2 °F /  -17.9 °C 1020.9 in /  34567.7 hPa NNE 1.6 mph /  2.6 km/h 4.8 mph /  7.7 km/h 73 % 0.0 in /  0 mm
02:10 4.1 °F /  -15.5 °C -0.3 °F /  -17.9 °C 1021.9 in /  34601.5 hPa North 1.6 mph /  2.6 km/h 4.8 mph /  7.7 km/h 73 % 0.0 in /  0 mm
02:20 4.1 °F /  -15.5 °C -0.3 °F /  -17.9 °C 1021.9 in /  34601.5 hPa NNE 3.2 mph /  5.1 km/h 4.8 mph /  7.7 km/h 73 % 0.0 in /  0 mm
02:30 4.1 °F /  -15.5 °C -0.3 °F /  -17.9 °C 1021.9 in /  34601.5 hPa NNE 3.2 mph /  5.1 km/h 6.4 mph /  10.3 km/h 73 % 0.0 in /  0 mm
02:40 4.3 °F /  -15.4 °C -0.1 °F /  -17.8 °C 1021.9 in /  34601.5 hPa NNE 1.6 mph /  2.6 km/h 3.2 mph /  5.1 km/h 73 % 0.0 in /  0 mm
03:00 5.3 °F /  -14.8 °C 0.8 °F /  -17.3 °C 1021.9 in /  34601.5 hPa North 1.6 mph /  2.6 km/h 4.8 mph /  7.7 km/h 73 % 0.0 in /  0 mm
03:10 5.6 °F /  -14.7 °C 0.9 °F /  -17.3 °C 1021.9 in /  34601.5 hPa NE 3.2 mph /  5.1 km/h 4.8 mph /  7.7 km/h 72 % 0.0 in /  0 mm
03:20 5.8 °F /  -14.6 °C 0.9 °F /  -17.3 °C 1021.9 in /  34601.5 hPa NE 4.8 mph /  7.7 km/h 6.4 mph /  10.3 km/h 71 % 0.0 in /  0 mm
03:30 6.2 °F /  -14.3 °C 1.3 °F /  -17.1 °C 1021.9 in /  34601.5 hPa NNE 3.2 mph /  5.1 km/h 3.2 mph /  5.1 km/h 71 % 0.0 in /  0 mm
03:40 6.8 °F /  -14 °C 1.9 °F /  -16.7 °C 1021.9 in /  34601.5 hPa Calm   3.2 mph /  5.1 km/h 71 % 0.0 in /  0 mm
03:50 7.2 °F /  -13.8 °C 2.1 °F /  -16.6 °C 1021.9 in /  34601.5 hPa Calm   3.2 mph /  5.1 km/h 70 % 0.0 in /  0 mm
04:00 7.2 °F /  -13.8 °C 1.9 °F /  -16.7 °C 1021.9 in /  34601.5 hPa North 1.6 mph /  2.6 km/h 4.8 mph /  7.7 km/h 69 % 0.0 in /  0 mm
04:10 6.7 °F /  -14.1 °C 1.2 °F /  -17.1 °C 1021.9 in /  34601.5 hPa NE 9.7 mph /  15.6 km/h 9.7 mph /  15.6 km/h 68 % 0.0 in /  0 mm
04:20 7.0 °F /  -13.9 °C 1.5 °F /  -16.9 °C 1021.9 in /  34601.5 hPa NE 4.8 mph /  7.7 km/h 6.4 mph /  10.3 km/h 68 % 0.0 in /  0 mm
04:30 7.6 °F /  -13.6 °C 2.1 °F /  -16.6 °C 1021.9 in /  34601.5 hPa NE 4.8 mph /  7.7 km/h 6.4 mph /  10.3 km/h 68 % 0.0 in /  0 mm
04:40 8.1 °F /  -13.3 °C 2.3 °F /  -16.5 °C 1021.9 in /  34601.5 hPa NNE 1.6 mph /  2.6 km/h 6.4 mph /  10.3 km/h 67 % 0.0 in /  0 mm
04:50 8.6 °F /  -13 °C 2.8 °F /  -16.2 °C 1021.9 in /  34601.5 hPa NNE 1.6 mph /  2.6 km/h 4.8 mph /  7.7 km/h 67 % 0.0 in /  0 mm
05:00 8.5 °F /  -13.1 °C 2.5 °F /  -16.4 °C 1021.9 in /  34601.5 hPa NE 3.2 mph /  5.1 km/h 6.4 mph /  10.3 km/h 66 % 0.0 in /  0 mm
05:10 9.4 °F /  -12.6 °C 3.4 °F /  -15.9 °C 1021.9 in /  34601.5 hPa NE 4.8 mph /  7.7 km/h 4.8 mph /  7.7 km/h 66 % 0.0 in /  0 mm
05:20 9.5 °F /  -12.5 °C 3.2 °F /  -16 °C 1021.9 in /  34601.5 hPa NE 1.6 mph /  2.6 km/h 4.8 mph /  7.7 km/h 65 % 0.0 in /  0 mm
05:30 10.2 °F /  -12.1 °C 3.9 °F /  -15.6 °C 1021.9 in /  34601.5 hPa ENE 3.2 mph /  5.1 km/h 4.8 mph /  7.7 km/h 65 % 0.0 in /  0 mm
05:40 11.2 °F /  -11.6 °C 4.6 °F /  -15.2 °C 1021.9 in /  34601.5 hPa WSW 3.2 mph /  5.1 km/h 6.4 mph /  10.3 km/h 64 % 0.0 in /  0 mm
05:50 11.6 °F /  -11.3 °C 4.8 °F /  -15.1 °C 1020.9 in /  34567.7 hPa WSW 4.8 mph /  7.7 km/h 9.7 mph /  15.6 km/h 63 % 0.0 in /  0 mm
06:00 11.9 °F /  -11.2 °C 4.6 °F /  -15.2 °C 1020.9 in /  34567.7 hPa West 3.2 mph /  5.1 km/h 6.4 mph /  10.3 km/h 61 % 0.0 in /  0 mm
06:10 12.4 °F /  -10.9 °C 4.8 °F /  -15.1 °C 1019.9 in /  34533.8 hPa WNW 1.6 mph /  2.6 km/h 4.8 mph /  7.7 km/h 60 % 0.0 in /  0 mm
06:20 12.8 °F /  -10.7 °C 5.0 °F /  -15 °C 1019.9 in /  34533.8 hPa WNW 1.6 mph /  2.6 km/h 3.2 mph /  5.1 km/h 59 % 0.0 in /  0 mm
06:30 12.9 °F /  -10.6 °C 4.8 °F /  -15.1 °C 1019.9 in /  34533.8 hPa West 8.0 mph /  12.9 km/h 8.0 mph /  12.9 km/h 58 % 0.0 in /  0 mm
06:40 13.4 °F /  -10.3 °C 5.1 °F /  -14.9 °C 1019.9 in /  34533.8 hPa West 1.6 mph /  2.6 km/h 4.8 mph /  7.7 km/h 57 % 0.0 in /  0 mm
06:50 13.4 °F /  -10.3 °C 4.6 °F /  -15.2 °C 1018.8 in /  34496.6 hPa WSW 9.7 mph /  15.6 km/h 16.1 mph /  25.9 km/h 55 % 0.0 in /  0 mm
07:00 13.8 °F /  -10.1 °C 4.7 °F /  -15.2 °C 1018.8 in /  34496.6 hPa WSW 1.6 mph /  2.6 km/h 9.7 mph /  15.6 km/h 54 % 0.0 in /  0 mm
07:10 14.1 °F /  -9.9 °C 4.9 °F /  -15.1 °C 1019.9 in /  34533.8 hPa WSW 4.8 mph /  7.7 km/h 8.0 mph /  12.9 km/h 54 % 0.0 in /  0 mm
07:20 14.3 °F /  -9.8 °C 4.8 °F /  -15.1 °C 1018.8 in /  34496.6 hPa West 4.8 mph /  7.7 km/h 12.9 mph /  20.8 km/h 53 % 0.0 in /  0 mm
07:30 14.4 °F /  -9.8 °C 4.7 °F /  -15.2 °C 1018.8 in /  34496.6 hPa West 9.7 mph /  15.6 km/h 9.7 mph /  15.6 km/h 52 % 0.0 in /  0 mm
13:32 14.3 °F /  -9.8 °C 4.6 °F /  -15.2 °C 1018.8 in /  34496.6 hPa WNW 11.1 mph /  17.9 km/h 11.1 mph /  17.9 km/h 52 % 0.0 in /  0 mm
13:37 14.1 °F /  -9.9 °C 4.1 °F /  -15.5 °C 1018.8 in /  34496.6 hPa SW 14.8 mph /  23.8 km/h 14.8 mph /  23.8 km/h 51 % 0.0 in /  0 mm
13:42 14.3 °F /  -9.8 °C 4.3 °F /  -15.4 °C 1018.8 in /  34496.6 hPa WSW 8.7 mph /  14 km/h 8.7 mph /  14 km/h 51 % 0.0 in /  0 mm
13:47 14.5 °F /  -9.7 °C 4.5 °F /  -15.3 °C 1017.8 in /  34462.7 hPa SW 6.1 mph /  9.8 km/h 6.1 mph /  9.8 km/h 51 % 0.0 in /  0 mm
13:52 14.2 °F /  -9.9 °C 4.2 °F /  -15.4 °C 1017.8 in /  34462.7 hPa WNW 20.4 mph /  32.8 km/h 20.4 mph /  32.8 km/h 51 % 0.0 in /  0 mm
13:57 14.1 °F /  -9.9 °C 4.1 °F /  -15.5 °C 1017.8 in /  34462.7 hPa WSW 9.3 mph /  15 km/h 9.3 mph /  15 km/h 51 % 0.0 in /  0 mm
14:02 14.0 °F /  -10 °C 4.0 °F /  -15.6 °C 1017.8 in /  34462.7 hPa SW 14.8 mph /  23.8 km/h 14.8 mph /  23.8 km/h 51 % 0.0 in /  0 mm
14:07 14.2 °F /  -9.9 °C 4.2 °F /  -15.4 °C 1017.8 in /  34462.7 hPa WSW 13.0 mph /  20.9 km/h 13.0 mph /  20.9 km/h 51 % 0.0 in /  0 mm
14:12 14.3 °F /  -9.8 °C 4.3 °F /  -15.4 °C 1017.8 in /  34462.7 hPa WNW 9.7 mph /  15.6 km/h 9.7 mph /  15.6 km/h 51 % 0.0 in /  0 mm
14:17 14.2 °F /  -9.9 °C 4.2 °F /  -15.4 °C 1017.8 in /  34462.7 hPa West 9.3 mph /  15 km/h 9.3 mph /  15 km/h 51 % 0.0 in /  0 mm
14:22 14.5 °F /  -9.7 °C 4.5 °F /  -15.3 °C 1017.8 in /  34462.7 hPa North 5.6 mph /  9 km/h 5.6 mph /  9 km/h 51 % 0.0 in /  0 mm
14:27 14.4 °F /  -9.8 °C 4.1 °F /  -15.5 °C 1017.8 in /  34462.7 hPa ENE 11.1 mph /  17.9 km/h 11.1 mph /  17.9 km/h 50 % 0.0 in /  0 mm
14:32 14.2 °F /  -9.9 °C 3.9 °F /  -15.6 °C 1017.8 in /  34462.7 hPa WSW 11.1 mph /  17.9 km/h 11.1 mph /  17.9 km/h 50 % 0.0 in /  0 mm
14:37 14.3 °F /  -9.8 °C 4.0 °F /  -15.6 °C 1017.8 in /  34462.7 hPa SW 9.3 mph /  15 km/h 9.3 mph /  15 km/h 50 % 0.0 in /  0 mm
14:42 14.3 °F /  -9.8 °C 4.0 °F /  -15.6 °C 1017.8 in /  34462.7 hPa WSW 11.1 mph /  17.9 km/h 11.1 mph /  17.9 km/h 50 % 0.0 in /  0 mm
14:47 14.4 °F /  -9.8 °C 4.1 °F /  -15.5 °C 1017.8 in /  34462.7 hPa ENE 9.3 mph /  15 km/h 9.3 mph /  15 km/h 50 % 0.0 in /  0 mm
14:52 14.6 °F /  -9.7 °C 4.3 °F /  -15.4 °C 1017.8 in /  34462.7 hPa NW 5.6 mph /  9 km/h 5.6 mph /  9 km/h 50 % 0.0 in /  0 mm
14:57 14.6 °F /  -9.7 °C 4.0 °F /  -15.6 °C 1017.8 in /  34462.7 hPa WSW 14.8 mph /  23.8 km/h 14.8 mph /  23.8 km/h 49 % 0.0 in /  0 mm
15:02 14.7 °F /  -9.6 °C 4.1 °F /  -15.5 °C 1017.8 in /  34462.7 hPa NNW 9.3 mph /  15 km/h 9.3 mph /  15 km/h 49 % 0.0 in /  0 mm
15:07 14.8 °F /  -9.6 °C 4.2 °F /  -15.4 °C 1017.8 in /  34462.7 hPa WNW 13.0 mph /  20.9 km/h 13.0 mph /  20.9 km/h 49 % 0.0 in /  0 mm
15:12 14.9 °F /  -9.5 °C 4.0 °F /  -15.6 °C 1017.8 in /  34462.7 hPa West 15.8 mph /  25.4 km/h 15.8 mph /  25.4 km/h 48 % 0.0 in /  0 mm
15:17 15.0 °F /  -9.4 °C 4.1 °F /  -15.5 °C 1017.8 in /  34462.7 hPa WSW 9.3 mph /  15 km/h 9.3 mph /  15 km/h 48 % 0.0 in /  0 mm
15:22 15.4 °F /  -9.2 °C 4.4 °F /  -15.3 °C 1017.8 in /  34462.7 hPa West 5.8 mph /  9.3 km/h 5.8 mph /  9.3 km/h 48 % 0.0 in /  0 mm
15:27 15.5 °F /  -9.2 °C 4.5 °F /  -15.3 °C 1017.8 in /  34462.7 hPa NW 14.0 mph /  22.5 km/h 14.0 mph /  22.5 km/h 48 % 0.0 in /  0 mm
15:32 15.6 °F /  -9.1 °C 4.6 °F /  -15.2 °C 1017.8 in /  34462.7 hPa NW 7.4 mph /  11.9 km/h 7.4 mph /  11.9 km/h 48 % 0.0 in /  0 mm
15:33 15.7 °F /  -9.1 °C 4.7 °F /  -15.2 °C 1017.8 in /  34462.7 hPa WSW 9.3 mph /  15 km/h 9.3 mph /  15 km/h 48 % 0.0 in /  0 mm
15:38 15.4 °F /  -9.2 °C 4.1 °F /  -15.5 °C 1017.8 in /  34462.7 hPa WSW 24.5 mph /  39.4 km/h 24.5 mph /  39.4 km/h 47 % 0.0 in /  0 mm
15:43 15.5 °F /  -9.2 °C 3.9 °F /  -15.6 °C 1017.8 in /  34462.7 hPa WNW 11.1 mph /  17.9 km/h 11.1 mph /  17.9 km/h 46 % 0.0 in /  0 mm
15:48 15.8 °F /  -9 °C 4.5 °F /  -15.3 °C 1017.8 in /  34462.7 hPa WSW 9.5 mph /  15.3 km/h 9.5 mph /  15.3 km/h 47 % 0.0 in /  0 mm
15:53 15.6 °F /  -9.1 °C 4.0 °F /  -15.6 °C 1017.8 in /  34462.7 hPa SW 9.3 mph /  15 km/h 9.3 mph /  15 km/h 46 % 0.0 in /  0 mm
15:58 15.7 °F /  -9.1 °C 4.1 °F /  -15.5 °C 1017.8 in /  34462.7 hPa ESE 5.6 mph /  9 km/h 5.6 mph /  9 km/h 46 % 0.0 in /  0 mm
16:03 15.8 °F /  -9 °C 4.2 °F /  -15.4 °C 1017.8 in /  34462.7 hPa West 13.0 mph /  20.9 km/h 13.0 mph /  20.9 km/h 46 % 0.0 in /  0 mm
16:08 15.6 °F /  -9.1 °C 3.7 °F /  -15.7 °C 1017.8 in /  34462.7 hPa WNW 13.0 mph /  20.9 km/h 13.0 mph /  20.9 km/h 45 % 0.0 in /  0 mm
16:13 15.5 °F /  -9.2 °C 3.6 °F /  -15.8 °C 1017.8 in /  34462.7 hPa WSW 11.1 mph /  17.9 km/h 11.1 mph /  17.9 km/h 45 % 0.0 in /  0 mm
16:18 15.5 °F /  -9.2 °C 3.6 °F /  -15.8 °C 1017.8 in /  34462.7 hPa WSW 9.3 mph /  15 km/h 9.3 mph /  15 km/h 45 % 0.0 in /  0 mm
16:23 15.6 °F /  -9.1 °C 3.7 °F /  -15.7 °C 1017.8 in /  34462.7 hPa SSW 4.7 mph /  7.6 km/h 4.7 mph /  7.6 km/h 45 % 0.0 in /  0 mm
16:28 15.6 °F /  -9.1 °C 3.7 °F /  -15.7 °C 1017.8 in /  34462.7 hPa SW 5.6 mph /  9 km/h 5.6 mph /  9 km/h 45 % 0.0 in /  0 mm
16:33 15.2 °F /  -9.3 °C 3.3 °F /  -15.9 °C 1016.8 in /  34428.8 hPa SW 7.4 mph /  11.9 km/h 7.4 mph /  11.9 km/h 45 % 0.0 in /  0 mm
16:38 15.0 °F /  -9.4 °C 3.2 °F /  -16 °C 1016.8 in /  34428.8 hPa West 5.6 mph /  9 km/h 5.6 mph /  9 km/h 45 % 0.0 in /  0 mm
16:43 15.2 °F /  -9.3 °C 3.3 °F /  -15.9 °C 1016.8 in /  34428.8 hPa SSW 5.6 mph /  9 km/h 5.6 mph /  9 km/h 45 % 0.0 in /  0 mm
16:48 15.4 °F /  -9.2 °C 3.5 °F /  -15.8 °C 1017.8 in /  34462.7 hPa WSW 5.6 mph /  9 km/h 5.6 mph /  9 km/h 45 % 0.0 in /  0 mm
16:53 15.2 °F /  -9.3 °C 3.3 °F /  -15.9 °C 1017.8 in /  34462.7 hPa NW 3.7 mph /  6 km/h 3.7 mph /  6 km/h 45 % 0.0 in /  0 mm
16:58 15.0 °F /  -9.4 °C 3.2 °F /  -16 °C 1017.8 in /  34462.7 hPa SSE 7.4 mph /  11.9 km/h 7.4 mph /  11.9 km/h 45 % 0.0 in /  0 mm
17:03 15.2 °F /  -9.3 °C 3.3 °F /  -15.9 °C 1017.8 in /  34462.7 hPa SSE 1.9 mph /  3.1 km/h   45 % 0.0 in /  0 mm
17:08 15.3 °F /  -9.3 °C 3.4 °F /  -15.9 °C 1017.8 in /  34462.7 hPa NW 5.6 mph /  9 km/h 5.6 mph /  9 km/h 45 % 0.0 in /  0 mm
17:13 15.2 °F /  -9.3 °C 3.3 °F /  -15.9 °C 1017.8 in /  34462.7 hPa West 3.7 mph /  6 km/h 3.7 mph /  6 km/h 45 % 0.0 in /  0 mm
17:18 15.1 °F /  -9.4 °C 3.2 °F /  -16 °C 1016.8 in /  34428.8 hPa WSW 9.3 mph /  15 km/h 9.3 mph /  15 km/h 45 % 0.0 in /  0 mm
17:23 15.1 °F /  -9.4 °C 3.2 °F /  -16 °C 1016.8 in /  34428.8 hPa SW 5.6 mph /  9 km/h 5.6 mph /  9 km/h 45 % 0.0 in /  0 mm
17:28 15.0 °F /  -9.4 °C 3.2 °F /  -16 °C 1016.8 in /  34428.8 hPa SSW 7.4 mph /  11.9 km/h 7.4 mph /  11.9 km/h 45 % 0.0 in /  0 mm
17:33 14.9 °F /  -9.5 °C 3.1 °F /  -16.1 °C 1016.8 in /  34428.8 hPa West 3.7 mph /  6 km/h 3.7 mph /  6 km/h 45 % 0.0 in /  0 mm
17:38 14.7 °F /  -9.6 °C 2.9 °F /  -16.2 °C 1016.8 in /  34428.8 hPa SSW 7.4 mph /  11.9 km/h 7.4 mph /  11.9 km/h 45 % 0.0 in /  0 mm
17:43 14.6 °F /  -9.7 °C 2.8 °F /  -16.2 °C 1016.8 in /  34428.8 hPa NW 5.6 mph /  9 km/h 5.6 mph /  9 km/h 45 % 0.0 in /  0 mm
17:48 14.4 °F /  -9.8 °C 2.6 °F /  -16.3 °C 1017.8 in /  34462.7 hPa WSW 5.6 mph /  9 km/h 5.6 mph /  9 km/h 45 % 0.0 in /  0 mm
17:53 14.2 °F /  -9.9 °C 2.4 °F /  -16.4 °C 1017.8 in /  34462.7 hPa West 4.2 mph /  6.8 km/h 4.2 mph /  6.8 km/h 45 % 0.0 in /  0 mm
17:58 14.1 °F /  -9.9 °C 2.3 °F /  -16.5 °C 1017.8 in /  34462.7 hPa SW 3.7 mph /  6 km/h 3.7 mph /  6 km/h 45 % 0.0 in /  0 mm
18:03 14.0 °F /  -10 °C 2.2 °F /  -16.6 °C 1016.8 in /  34428.8 hPa WSW 8.7 mph /  14 km/h 8.7 mph /  14 km/h 45 % 0.0 in /  0 mm
18:08 14.0 °F /  -10 °C 2.2 °F /  -16.6 °C 1016.8 in /  34428.8 hPa SW 5.6 mph /  9 km/h 5.6 mph /  9 km/h 45 % 0.0 in /  0 mm
18:13 13.8 °F /  -10.1 °C 2.1 °F /  -16.6 °C 1016.8 in /  34428.8 hPa WSW 5.6 mph /  9 km/h 5.6 mph /  9 km/h 45 % 0.0 in /  0 mm
18:18 13.6 °F /  -10.2 °C 1.9 °F /  -16.7 °C 1016.8 in /  34428.8 hPa WSW 4.2 mph /  6.8 km/h 4.2 mph /  6.8 km/h 45 % 0.0 in /  0 mm
18:23 13.5 °F /  -10.3 °C 1.8 °F /  -16.8 °C 1016.8 in /  34428.8 hPa WSW 5.0 mph /  8 km/h 5.0 mph /  8 km/h 45 % 0.0 in /  0 mm
18:28 13.6 °F /  -10.2 °C 2.2 °F /  -16.6 °C 1016.8 in /  34428.8 hPa WNW 6.1 mph /  9.8 km/h 6.1 mph /  9.8 km/h 46 % 0.0 in /  0 mm
18:33 13.5 °F /  -10.3 °C 2.1 °F /  -16.6 °C 1016.8 in /  34428.8 hPa WSW 5.6 mph /  9 km/h 5.6 mph /  9 km/h 46 % 0.0 in /  0 mm
18:38 13.4 °F /  -10.3 °C 2.0 °F /  -16.7 °C 1016.8 in /  34428.8 hPa SW 7.4 mph /  11.9 km/h 7.4 mph /  11.9 km/h 46 % 0.0 in /  0 mm
18:43 13.4 °F /  -10.3 °C 2.0 °F /  -16.7 °C 1016.8 in /  34428.8 hPa WSW 5.6 mph /  9 km/h 6.9 mph /  11.1 km/h 46 % 0.0 in /  0 mm
18:48 13.3 °F /  -10.4 °C 1.9 °F /  -16.7 °C 1016.8 in /  34428.8 hPa WSW 4.7 mph /  7.6 km/h 4.7 mph /  7.6 km/h 46 % 0.0 in /  0 mm
18:53 13.1 °F /  -10.5 °C 1.7 °F /  -16.8 °C 1016.8 in /  34428.8 hPa SW 3.9 mph /  6.3 km/h 3.9 mph /  6.3 km/h 46 % 0.0 in /  0 mm
18:58 13.1 °F /  -10.5 °C 1.7 °F /  -16.8 °C 1016.8 in /  34428.8 hPa WSW 7.4 mph /  11.9 km/h 7.4 mph /  11.9 km/h 46 % 0.0 in /  0 mm
19:03 13.0 °F /  -10.6 °C 1.9 °F /  -16.7 °C 1015.8 in /  34395 hPa WSW 5.6 mph /  9 km/h 5.6 mph /  9 km/h 47 % 0.0 in /  0 mm
19:08 12.9 °F /  -10.6 °C 1.8 °F /  -16.8 °C 1015.8 in /  34395 hPa West 3.9 mph /  6.3 km/h 3.9 mph /  6.3 km/h 47 % 0.0 in /  0 mm
19:13 12.8 °F /  -10.7 °C 1.8 °F /  -16.8 °C 1015.8 in /  34395 hPa WSW 5.6 mph /  9 km/h 5.6 mph /  9 km/h 47 % 0.0 in /  0 mm
19:18 12.7 °F /  -10.7 °C 1.7 °F /  -16.8 °C 1015.8 in /  34395 hPa SW 5.6 mph /  9 km/h 5.6 mph /  9 km/h 47 % 0.0 in /  0 mm
19:23 12.6 °F /  -10.8 °C 1.9 °F /  -16.7 °C 1015.8 in /  34395 hPa West 5.6 mph /  9 km/h 5.6 mph /  9 km/h 48 % 0.0 in /  0 mm
19:28 12.5 °F /  -10.8 °C 1.8 °F /  -16.8 °C 1015.8 in /  34395 hPa WSW 5.6 mph /  9 km/h 5.6 mph /  9 km/h 48 % 0.0 in /  0 mm
19:33 12.5 °F /  -10.8 °C 1.8 °F /  -16.8 °C 1016.8 in /  34428.8 hPa WSW 5.0 mph /  8 km/h 5.0 mph /  8 km/h 48 % 0.0 in /  0 mm
19:38 12.4 °F /  -10.9 °C 1.9 °F /  -16.7 °C 1016.8 in /  34428.8 hPa SW 5.0 mph /  8 km/h 5.0 mph /  8 km/h 49 % 0.0 in /  0 mm
19:43 12.5 °F /  -10.8 °C 2.1 °F /  -16.6 °C 1016.8 in /  34428.8 hPa SW 9.3 mph /  15 km/h 9.3 mph /  15 km/h 49 % 0.0 in /  0 mm
19:48 12.5 °F /  -10.8 °C 2.3 °F /  -16.5 °C 1016.8 in /  34428.8 hPa West 5.6 mph /  9 km/h 5.6 mph /  9 km/h 50 % 0.0 in /  0 mm
19:53 12.4 °F /  -10.9 °C 2.3 °F /  -16.5 °C 1016.8 in /  34428.8 hPa West 5.6 mph /  9 km/h 5.6 mph /  9 km/h 50 % 0.0 in /  0 mm
19:58 12.5 °F /  -10.8 °C 2.3 °F /  -16.5 °C 1016.8 in /  34428.8 hPa West 5.6 mph /  9 km/h 5.6 mph /  9 km/h 50 % 0.0 in /  0 mm
20:03 12.5 °F /  -10.8 °C 2.3 °F /  -16.5 °C 1016.8 in /  34428.8 hPa West 5.6 mph /  9 km/h 5.6 mph /  9 km/h 50 % 0.0 in /  0 mm
20:08 12.5 °F /  -10.8 °C 2.6 °F /  -16.3 °C 1016.8 in /  34428.8 hPa West 5.6 mph /  9 km/h 5.6 mph /  9 km/h 51 % 0.0 in /  0 mm
20:13 12.5 °F /  -10.8 °C 2.6 °F /  -16.3 °C 1016.8 in /  34428.8 hPa WSW 5.6 mph /  9 km/h 5.6 mph /  9 km/h 51 % 0.0 in /  0 mm
20:18 12.6 °F /  -10.8 °C 2.7 °F /  -16.3 °C 1016.8 in /  34428.8 hPa West 9.3 mph /  15 km/h 9.3 mph /  15 km/h 51 % 0.0 in /  0 mm
20:23 12.7 °F /  -10.7 °C 3.1 °F /  -16.1 °C 1016.8 in /  34428.8 hPa WSW 9.0 mph /  14.5 km/h 9.0 mph /  14.5 km/h 52 % 0.0 in /  0 mm
20:28 12.7 °F /  -10.7 °C 3.1 °F /  -16.1 °C 1016.8 in /  34428.8 hPa WSW 9.3 mph /  15 km/h 9.3 mph /  15 km/h 52 % 0.0 in /  0 mm
20:33 12.8 °F /  -10.7 °C 3.2 °F /  -16 °C 1015.8 in /  34395 hPa West 3.7 mph /  6 km/h 4.2 mph /  6.8 km/h 52 % 0.0 in /  0 mm
20:38 12.7 °F /  -10.7 °C 3.1 °F /  -16.1 °C 1015.8 in /  34395 hPa WSW 3.9 mph /  6.3 km/h 3.9 mph /  6.3 km/h 52 % 0.0 in /  0 mm
20:43 12.7 °F /  -10.7 °C 3.1 °F /  -16.1 °C 1015.8 in /  34395 hPa West 5.6 mph /  9 km/h 5.6 mph /  9 km/h 52 % 0.0 in /  0 mm
20:48 12.8 °F /  -10.7 °C 3.4 °F /  -15.9 °C 1016.8 in /  34428.8 hPa WSW 9.3 mph /  15 km/h 9.3 mph /  15 km/h 53 % 0.0 in /  0 mm
20:53 12.7 °F /  -10.7 °C 3.3 °F /  -15.9 °C 1016.8 in /  34428.8 hPa WSW 3.7 mph /  6 km/h 3.7 mph /  6 km/h 53 % 0.0 in /  0 mm
20:58 12.6 °F /  -10.8 °C 3.3 °F /  -15.9 °C 1016.8 in /  34428.8 hPa SW 3.7 mph /  6 km/h 3.7 mph /  6 km/h 53 % 0.0 in /  0 mm
21:03 12.6 °F /  -10.8 °C 3.3 °F /  -15.9 °C 1015.8 in /  34395 hPa WSW 9.3 mph /  15 km/h 9.3 mph /  15 km/h 53 % 0.0 in /  0 mm
21:08 12.6 °F /  -10.8 °C 3.3 °F /  -15.9 °C 1015.8 in /  34395 hPa WNW 5.6 mph /  9 km/h 5.6 mph /  9 km/h 53 % 0.0 in /  0 mm
21:13 12.5 °F /  -10.8 °C 3.4 °F /  -15.9 °C 1015.8 in /  34395 hPa SSW 3.7 mph /  6 km/h 3.7 mph /  6 km/h 54 % 0.0 in /  0 mm
21:18 12.6 °F /  -10.8 °C 3.6 °F /  -15.8 °C 1015.8 in /  34395 hPa South 3.7 mph /  6 km/h 3.7 mph /  6 km/h 54 % 0.0 in /  0 mm
21:23 12.5 °F /  -10.8 °C 3.4 °F /  -15.9 °C 1015.8 in /  34395 hPa NW 3.7 mph /  6 km/h 3.7 mph /  6 km/h 54 % 0.0 in /  0 mm
21:28 12.5 °F /  -10.8 °C 3.4 °F /  -15.9 °C 1015.8 in /  34395 hPa WSW 3.7 mph /  6 km/h 3.7 mph /  6 km/h 54 % 0.0 in /  0 mm
21:33 12.6 °F /  -10.8 °C 3.6 °F /  -15.8 °C 1015.8 in /  34395 hPa WSW 5.6 mph /  9 km/h 5.6 mph /  9 km/h 54 % 0.0 in /  0 mm
21:38 12.7 °F /  -10.7 °C 3.6 °F /  -15.8 °C 1015.8 in /  34395 hPa West 4.7 mph /  7.6 km/h 4.7 mph /  7.6 km/h 54 % 0.0 in /  0 mm
21:43 12.7 °F /  -10.7 °C 3.6 °F /  -15.8 °C 1015.8 in /  34395 hPa WSW 3.7 mph /  6 km/h 3.7 mph /  6 km/h 54 % 0.0 in /  0 mm
21:48 12.7 °F /  -10.7 °C 3.6 °F /  -15.8 °C 1016.8 in /  34428.8 hPa WNW 11.1 mph /  17.9 km/h 11.1 mph /  17.9 km/h 54 % 0.0 in /  0 mm
21:53 12.7 °F /  -10.7 °C 3.6 °F /  -15.8 °C 1016.8 in /  34428.8 hPa West 7.4 mph /  11.9 km/h 7.4 mph /  11.9 km/h 54 % 0.0 in /  0 mm
21:58 12.7 °F /  -10.7 °C 3.9 °F /  -15.6 °C 1016.8 in /  34428.8 hPa WSW 5.0 mph /  8 km/h 5.0 mph /  8 km/h 55 % 0.0 in /  0 mm
22:03 12.7 °F /  -10.7 °C 3.9 °F /  -15.6 °C 1015.8 in /  34395 hPa West 5.6 mph /  9 km/h 5.6 mph /  9 km/h 55 % 0.0 in /  0 mm
22:08 12.6 °F /  -10.8 °C 3.8 °F /  -15.7 °C 1015.8 in /  34395 hPa WNW 3.7 mph /  6 km/h 3.7 mph /  6 km/h 55 % 0.0 in /  0 mm
22:13 12.6 °F /  -10.8 °C 3.8 °F /  -15.7 °C 1015.8 in /  34395 hPa West 9.3 mph /  15 km/h 9.3 mph /  15 km/h 55 % 0.0 in /  0 mm
22:18 12.5 °F /  -10.8 °C 3.7 °F /  -15.7 °C 1015.8 in /  34395 hPa West 5.6 mph /  9 km/h 5.6 mph /  9 km/h 55 % 0.0 in /  0 mm
22:23 12.4 °F /  -10.9 °C 3.8 °F /  -15.7 °C 1015.8 in /  34395 hPa WNW 5.6 mph /  9 km/h 5.6 mph /  9 km/h 56 % 0.0 in /  0 mm
22:28 12.4 °F /  -10.9 °C 3.8 °F /  -15.7 °C 1015.8 in /  34395 hPa WSW 5.6 mph /  9 km/h 5.6 mph /  9 km/h 56 % 0.0 in /  0 mm
22:33 12.3 °F /  -10.9 °C 3.8 °F /  -15.7 °C 1016.8 in /  34428.8 hPa WSW 7.4 mph /  11.9 km/h 7.4 mph /  11.9 km/h 56 % 0.0 in /  0 mm
22:38 12.4 °F /  -10.9 °C 3.8 °F /  -15.7 °C 1016.8 in /  34428.8 hPa WSW 7.4 mph /  11.9 km/h 7.4 mph /  11.9 km/h 56 % 0.0 in /  0 mm
22:43 12.3 °F /  -10.9 °C 4.0 °F /  -15.6 °C 1016.8 in /  34428.8 hPa WSW 9.7 mph /  15.6 km/h 9.7 mph /  15.6 km/h 57 % 0.0 in /  0 mm
22:48 12.4 °F /  -10.9 °C 4.1 °F /  -15.5 °C 1015.8 in /  34395 hPa WSW 9.5 mph /  15.3 km/h 9.5 mph /  15.3 km/h 57 % 0.0 in /  0 mm
22:53 12.4 °F /  -10.9 °C 4.3 °F /  -15.4 °C 1015.8 in /  34395 hPa West 9.3 mph /  15 km/h 9.3 mph /  15 km/h 58 % 0.0 in /  0 mm
22:58 12.3 °F /  -10.9 °C 4.3 °F /  -15.4 °C 1015.8 in /  34395 hPa WNW 9.3 mph /  15 km/h 9.3 mph /  15 km/h 58 % 0.0 in /  0 mm
23:03 12.4 °F /  -10.9 °C 4.6 °F /  -15.2 °C 1016.8 in /  34428.8 hPa NNW 18.3 mph /  29.5 km/h 18.3 mph /  29.5 km/h 59 % 0.0 in /  0 mm
23:08 12.4 °F /  -10.9 °C 4.6 °F /  -15.2 °C 1016.8 in /  34428.8 hPa NNW 7.4 mph /  11.9 km/h 7.4 mph /  11.9 km/h 59 % 0.0 in /  0 mm
23:13 12.4 °F /  -10.9 °C 4.6 °F /  -15.2 °C 1016.8 in /  34428.8 hPa WSW 9.3 mph /  15 km/h 9.3 mph /  15 km/h 59 % 0.0 in /  0 mm
23:18 12.3 °F /  -10.9 °C 4.8 °F /  -15.1 °C 1016.8 in /  34428.8 hPa SSW 3.7 mph /  6 km/h 3.7 mph /  6 km/h 60 % 0.0 in /  0 mm
23:23 12.3 °F /  -10.9 °C 4.8 °F /  -15.1 °C 1016.8 in /  34428.8 hPa WSW 13.0 mph /  20.9 km/h 13.0 mph /  20.9 km/h 60 % 0.0 in /  0 mm
23:28 12.3 °F /  -10.9 °C 4.8 °F /  -15.1 °C 1016.8 in /  34428.8 hPa NNW 5.6 mph /  9 km/h 5.6 mph /  9 km/h 60 % 0.0 in /  0 mm
23:33 12.3 °F /  -10.9 °C 4.8 °F /  -15.1 °C 1016.8 in /  34428.8 hPa West 3.7 mph /  6 km/h 3.7 mph /  6 km/h 60 % 0.0 in /  0 mm
23:38 12.2 °F /  -11 °C 4.7 °F /  -15.2 °C 1016.8 in /  34428.8 hPa South 7.4 mph /  11.9 km/h 7.4 mph /  11.9 km/h 60 % 0.0 in /  0 mm
23:43 12.2 °F /  -11 °C 4.7 °F /  -15.2 °C 1016.8 in /  34428.8 hPa West 3.7 mph /  6 km/h 3.7 mph /  6 km/h 60 % 0.0 in /  0 mm
23:48 12.1 °F /  -11.1 °C 4.6 °F /  -15.2 °C 1017.8 in /  34462.7 hPa WNW 5.6 mph /  9 km/h 5.6 mph /  9 km/h 60 % 0.0 in /  0 mm
23:53 12.1 °F /  -11.1 °C 4.8 °F /  -15.1 °C 1017.8 in /  34462.7 hPa West 3.7 mph /  6 km/h 3.7 mph /  6 km/h 61 % 0.0 in /  0 mm
23:58 12.1 °F /  -11.1 °C 4.8 °F /  -15.1 °C 1017.8 in /  34462.7 hPa WSW 5.6 mph /  9 km/h 5.6 mph /  9 km/h 61 % 0.0 in /  0 mm
Meteo Sesrovires
Elogis d' Weather Underground - 3.5 mb

Guio original per  Jim McMurry - jmcmurry@mwt.net Adaptat per a la plantilla per  Wim van der Kuil - Leuven-Template.eu

Trobareu la nostra informacio del temps tambe a:

Weather Underground

AWEKAS